Time;durP1;ratioP1;P1;durP2;ratioP2;P2;SDS_P1;SDS_P2;PMS_P1;PMS_P2;Temp;Humidity;BMP_temperature;BMP_pressure;BME280_temperature;BME280_humidity;BME280_pressure;Samples;Min_cycle;Max_cycle;Signal;HPM_P1;HPM_P2
2022/10/17 00:00:50;;;;;;;;;11.00;9.00;;;;;19.32;73.93;101204.31;5118475;27;45388;-79
2022/10/17 00:03:15;;;;;;;;;8.50;8.50;;;;;19.31;73.68;101214.97;5118478;27;45509;-79
2022/10/17 00:05:44;;;;;;;;;11.25;9.25;;;;;19.33;73.85;101205.16;5118343;27;45661;-79
2022/10/17 00:08:10;;;;;;;;;10.75;9.00;;;;;19.34;73.77;101204.25;5118181;27;45342;-79
2022/10/17 00:10:36;;;;;;;;;11.00;10.00;;;;;19.38;73.53;101207.56;5118156;27;46403;-79
2022/10/17 00:13:01;;;;;;;;;8.25;8.00;;;;;19.39;73.55;101217.16;5118365;27;45622;-79
2022/10/17 00:15:27;;;;;;;;;10.25;8.25;;;;;19.38;73.55;101211.03;5118222;27;45323;-79
2022/10/17 00:17:52;;;;;;;;;10.00;8.50;;;;;19.38;73.68;101213.66;5116977;27;67212;-79
2022/10/17 00:20:18;;;;;;;;;11.00;9.00;;;;;19.39;73.72;101206.59;5098717;27;68206;-79
2022/10/17 00:22:43;;;;;;;;;8.75;7.00;;;;;19.38;73.54;101211.03;5117698;27;45634;-80
2022/10/17 00:25:09;;;;;;;;;11.25;8.50;;;;;19.40;73.85;101208.31;5117221;27;68472;-79
2022/10/17 00:27:38;;;;;;;;;9.25;8.00;;;;;19.38;73.32;101218.94;5098871;27;64146;-79
2022/10/17 00:30:06;;;;;;;;;10.50;10.00;;;;;19.36;73.58;101218.19;5099329;27;46494;-79
2022/10/17 00:32:31;;;;;;;;;9.00;8.50;;;;;19.36;73.52;101220.84;5117944;27;45698;-79
2022/10/17 00:34:57;;;;;;;;;8.00;8.00;;;;;19.39;73.38;101225.06;5132678;27;67999;-79
2022/10/17 00:37:22;;;;;;;;;11.50;8.50;;;;;19.40;73.35;101225.00;5119952;27;45399;-79
2022/10/17 00:39:47;;;;;;;;;15.25;9.75;;;;;19.41;73.19;101231.97;5138224;27;46636;-79
2022/10/17 00:42:13;;;;;;;;;8.25;8.25;;;;;19.41;73.19;101229.34;5138502;27;45343;-79
2022/10/17 00:44:41;;;;;;;;;9.00;7.25;;;;;19.40;73.11;101229.44;5137615;27;68366;-79
2022/10/17 00:47:13;;;;;;;;;9.00;7.75;;;;;19.42;73.37;101227.53;5138539;27;45469;-79
2022/10/17 00:49:39;;;;;;;;;8.75;8.75;;;;;19.41;73.02;101229.34;5118587;27;47203;-79
2022/10/17 00:52:11;;;;;;;;;9.00;9.00;;;;;19.43;73.23;101223.97;5119824;27;45424;-79
2022/10/17 00:54:39;;;;;;;;;10.50;6.75;;;;;19.45;73.19;101219.47;5119951;27;45341;-79
2022/10/17 00:57:05;;;;;;;;;8.25;7.50;;;;;19.44;72.88;101217.75;5119786;27;45424;-79
2022/10/17 00:59:35;;;;;;;;;13.75;8.00;;;;;19.44;72.84;101223.88;5118808;27;67829;-79
2022/10/17 01:02:07;;;;;;;;;9.25;9.00;;;;;19.44;72.99;101223.03;5119650;27;45453;-79
2022/10/17 01:04:35;;;;;;;;;14.50;7.75;;;;;19.45;72.96;101214.19;5119381;27;45372;-79
2022/10/17 01:07:00;;;;;;;;;10.50;7.00;;;;;19.46;72.71;101227.25;5138050;27;45334;-79
2022/10/17 01:09:26;;;;;;;;;9.00;7.50;;;;;19.48;72.45;101232.47;5118388;27;75481;-79
2022/10/17 01:12:03;;;;;;;;;9.75;8.00;;;;;19.48;72.68;101235.09;5119706;27;45508;-79
2022/10/17 01:14:36;;;;;;;;;11.00;10.00;;;;;19.48;72.64;101216.63;5119613;27;45441;-79
2022/10/17 01:17:13;;;;;;;;;8.50;7.75;;;;;19.49;72.51;101210.41;5119487;27;45426;-80
2022/10/17 01:20:16;;;;;;;;;12.25;7.75;;;;;19.45;72.67;101212.38;5119030;27;46178;-80
2022/10/17 01:23:04;;;;;;;;;9.50;8.00;;;;;19.43;72.40;101210.78;5137897;27;45744;-79
2022/10/17 01:25:48;;;;;;;;;8.00;8.00;;;;;19.40;72.79;101226.78;5137086;27;45295;-79
2022/10/17 01:28:37;;;;;;;;;9.75;7.25;;;;;19.36;72.59;101226.13;5137997;27;45281;-79
2022/10/17 01:31:12;;;;;;;;;11.00;7.75;;;;;19.32;72.78;101232.50;5119062;27;45529;-79
2022/10/17 01:33:49;;;;;;;;;7.00;7.00;;;;;19.30;72.96;101240.53;5113603;27;45725;-79
2022/10/17 01:36:23;;;;;;;;;9.75;7.00;;;;;19.30;73.03;101244.97;5098590;27;45316;-79
2022/10/17 01:38:53;;;;;;;;;9.25;6.75;;;;;19.32;72.93;101249.19;5098400;27;45705;-79
2022/10/17 01:42:07;;;;;;;;;6.50;6.25;;;;;19.34;73.12;101244.69;5098486;27;45441;-79
2022/10/17 01:44:55;;;;;;;;;7.00;6.50;;;;;19.34;72.73;101259.66;5053291;28;45575;-79
2022/10/17 01:47:24;;;;;;;;;8.00;8.00;;;;;19.34;72.67;101257.88;4993570;28;45581;-79
2022/10/17 01:49:52;;;;;;;;;7.00;7.00;;;;;19.36;72.96;101255.16;4993440;28;45534;-79
2022/10/17 01:52:25;;;;;;;;;10.00;8.00;;;;;19.35;72.53;101264.00;4993367;28;45409;-79
2022/10/17 01:54:55;;;;;;;;;7.50;6.50;;;;;19.31;72.60;101257.19;4993378;28;45499;-79
2022/10/17 01:57:36;;;;;;;;;10.00;7.50;;;;;19.23;73.33;101255.00;4977225;28;45551;-79
2022/10/17 02:00:07;;;;;;;;;9.00;8.75;;;;;19.18;72.64;101267.59;4993838;28;45420;-79
2022/10/17 02:02:32;;;;;;;;;6.75;6.50;;;;;19.17;72.87;101265.03;4980022;28;45421;-79
2022/10/17 02:04:58;;;;;;;;;7.25;7.25;;;;;19.13;73.15;101262.59;4996542;28;45666;-79
2022/10/17 02:07:23;;;;;;;;;7.00;6.50;;;;;19.13;73.04;101259.97;4995831;28;66840;-79
2022/10/17 02:09:48;;;;;;;;;6.25;6.25;;;;;19.10;73.19;101254.84;4996956;28;45427;-79
2022/10/17 02:12:54;;;;;;;;;9.50;7.00;;;;;19.09;73.20;101261.06;4996478;28;47915;-79
2022/10/17 02:15:33;;;;;;;;;6.00;6.00;;;;;19.08;73.14;101250.59;4996308;28;45635;-79
2022/10/17 02:18:26;;;;;;;;;9.25;8.75;;;;;19.08;73.22;101258.53;5007020;28;45400;-79
2022/10/17 02:21:07;;;;;;;;;8.00;7.00;;;;;19.09;73.03;101254.94;5036270;28;45296;-79
2022/10/17 02:23:38;;;;;;;;;7.25;6.50;;;;;19.09;73.06;101254.94;5030775;27;46207;-79
2022/10/17 02:26:34;;;;;;;;;6.25;6.25;;;;;19.08;73.17;101250.59;5119810;27;45366;-79
2022/10/17 02:29:09;;;;;;;;;5.50;5.50;;;;;19.08;73.22;101237.41;5016314;28;45414;-79
2022/10/17 02:31:40;;;;;;;;;10.50;6.25;;;;;19.08;73.10;101237.41;5015826;28;45532;-79
2022/10/17 02:34:15;;;;;;;;;9.25;7.00;;;;;19.09;72.92;101239.97;5013387;28;47154;-79
2022/10/17 02:36:46;;;;;;;;;7.00;6.75;;;;;19.10;72.62;101227.63;5019253;28;45420;-79
2022/10/17 02:39:12;;;;;;;;;7.75;7.00;;;;;19.08;72.61;101235.63;5037374;28;45252;-79
2022/10/17 02:41:39;;;;;;;;;6.50;6.25;;;;;19.09;72.56;101239.97;5038427;28;68722;-79
2022/10/17 02:44:05;;;;;;;;;9.25;7.50;;;;;19.09;72.72;101239.97;5039255;28;45485;-79
2022/10/17 02:46:32;;;;;;;;;6.50;6.25;;;;;19.10;72.55;101246.09;5038852;28;45419;-79
2022/10/17 02:49:05;;;;;;;;;8.00;6.50;;;;;19.09;72.49;101242.59;5039383;28;45496;-79
2022/10/17 02:51:46;;;;;;;;;5.50;3.25;;;;;19.10;72.39;101246.09;5056140;28;45330;-79
2022/10/17 02:54:20;;;;;;;;;8.25;6.75;;;;;19.11;72.37;101247.78;5056056;28;46642;-79
2022/10/17 02:56:56;;;;;;;;;8.50;7.00;;;;;19.12;71.99;101260.88;5055856;28;45355;-79
2022/10/17 02:59:24;;;;;;;;;7.00;6.50;;;;;19.11;72.25;101256.56;5039068;28;45475;-79
2022/10/17 03:01:50;;;;;;;;;7.00;6.50;;;;;19.11;72.10;101248.66;5038872;28;45568;-79
2022/10/17 03:04:17;;;;;;;;;8.00;7.00;;;;;19.11;71.60;101247.78;5038981;28;46419;-79
2022/10/17 03:06:42;;;;;;;;;8.50;7.00;;;;;19.12;72.10;101244.22;5112442;27;45703;-79
2022/10/17 03:09:08;;;;;;;;;8.25;6.75;;;;;19.10;71.92;101241.66;5118152;27;45252;-79
2022/10/17 03:11:33;;;;;;;;;7.00;7.00;;;;;19.11;71.89;101242.50;5118730;27;45276;-79
2022/10/17 03:13:58;;;;;;;;;9.00;6.00;;;;;19.11;71.93;101256.56;5118815;27;46176;-79
2022/10/17 03:16:24;;;;;;;;;7.50;6.00;;;;;19.09;71.53;101255.78;5118378;27;55204;-79
2022/10/17 03:18:49;;;;;;;;;7.00;6.00;;;;;19.10;71.68;101251.38;5119286;27;45360;-79
2022/10/17 03:21:15;;;;;;;;;6.25;6.00;;;;;19.11;71.75;101243.38;5132407;27;47093;-79
2022/10/17 03:23:40;;;;;;;;;8.75;7.50;;;;;19.11;71.43;101250.41;5139027;27;65316;-79
2022/10/17 03:26:06;;;;;;;;;6.00;6.00;;;;;19.08;71.11;101255.88;5139046;27;65762;-79
2022/10/17 03:28:32;;;;;;;;;7.25;7.25;;;;;19.06;71.33;101250.69;5121435;27;45331;-79
2022/10/17 03:30:57;;;;;;;;;8.50;7.50;;;;;19.04;71.68;101264.91;5121049;27;45294;-79
2022/10/17 03:33:22;;;;;;;;;7.25;6.00;;;;;19.06;71.60;101276.22;5138666;27;67406;-79
2022/10/17 03:35:47;;;;;;;;;7.25;7.00;;;;;19.05;71.32;101279.78;5138684;27;66764;-79
2022/10/17 03:38:13;;;;;;;;;9.50;6.25;;;;;19.06;71.12;101284.13;5139449;27;45342;-80
2022/10/17 03:40:38;;;;;;;;;6.25;6.25;;;;;19.09;71.49;101281.31;5139216;27;48225;-79
2022/10/17 03:43:03;;;;;;;;;9.75;7.00;;;;;19.10;71.45;101288.31;5138530;27;66003;-79
2022/10/17 03:45:29;;;;;;;;;6.25;6.25;;;;;19.11;71.06;101296.13;5138296;27;66778;-80
2022/10/17 03:47:54;;;;;;;;;7.50;7.00;;;;;19.11;70.96;101296.13;5119943;27;66475;-79
2022/10/17 03:50:19;;;;;;;;;8.50;6.50;;;;;19.12;71.08;101303.09;5119929;27;70457;-79
2022/10/17 03:52:47;;;;;;;;;8.25;8.00;;;;;19.12;70.94;101300.47;5120566;27;46045;-79
2022/10/17 03:55:12;;;;;;;;;5.25;3.75;;;;;19.14;71.00;101303.03;5138945;27;45779;-79
2022/10/17 03:57:38;;;;;;;;;7.50;6.00;;;;;19.12;70.74;101318.09;5139176;27;45352;-79
2022/10/17 04:00:04;;;;;;;;;7.00;6.50;;;;;19.11;71.05;101300.53;5138107;27;64063;-79
2022/10/17 04:02:29;;;;;;;;;7.50;6.00;;;;;19.13;70.83;101307.44;5139221;27;47829;-79
2022/10/17 04:04:55;;;;;;;;;6.00;5.75;;;;;19.13;70.98;101302.19;5120515;27;45440;-79
2022/10/17 04:07:20;;;;;;;;;9.00;7.00;;;;;19.12;70.88;101316.28;5102456;27;64377;-79
2022/10/17 04:09:45;;;;;;;;;7.50;6.75;;;;;19.12;70.74;101320.72;5138442;27;65172;-79
2022/10/17 04:12:11;;;;;;;;;9.00;5.25;;;;;19.08;70.69;101309.50;5138116;27;71545;-79
2022/10/17 04:14:37;;;;;;;;;7.75;6.00;;;;;19.08;70.65;101317.41;5138720;27;45244;-79
2022/10/17 04:17:02;;;;;;;;;8.75;6.00;;;;;19.07;70.85;101313.06;5120521;27;45446;-80
2022/10/17 04:19:27;;;;;;;;;6.50;6.00;;;;;19.09;70.52;101318.25;5120192;27;45311;-79
2022/10/17 04:21:53;;;;;;;;;6.75;5.00;;;;;19.09;70.73;101324.41;5138688;27;45970;-80
2022/10/17 04:24:18;;;;;;;;;7.25;7.25;;;;;19.12;70.90;101324.22;5137553;27;46608;-79
2022/10/17 04:26:44;;;;;;;;;6.25;6.25;;;;;19.12;70.68;101332.13;5137103;27;65310;-79
2022/10/17 04:29:10;;;;;;;;;7.25;6.25;;;;;19.13;70.31;101325.09;5119735;27;49369;-79
2022/10/17 04:31:36;;;;;;;;;5.75;5.00;;;;;19.09;70.26;101324.41;5120178;27;45545;-79
2022/10/17 04:34:01;;;;;;;;;5.00;5.00;;;;;19.10;70.41;101334.00;5111151;27;45427;-80
2022/10/17 04:36:27;;;;;;;;;5.50;4.00;;;;;19.09;70.32;101332.31;5117449;27;52177;-79
2022/10/17 04:38:52;;;;;;;;;6.75;6.00;;;;;19.10;69.99;101338.44;5098598;27;63943;-79
2022/10/17 04:41:18;;;;;;;;;7.00;6.00;;;;;19.07;70.07;101346.50;5117323;27;62601;-79
2022/10/17 04:43:44;;;;;;;;;6.25;5.25;;;;;19.08;69.98;101356.13;5098709;27;45387;-79
2022/10/17 04:46:11;;;;;;;;;8.25;6.00;;;;;19.09;70.09;101350.78;5117707;27;45447;-79
2022/10/17 04:48:38;;;;;;;;;8.50;7.25;;;;;19.08;70.21;101351.72;5117846;27;45240;-79
2022/10/17 04:51:09;;;;;;;;;9.25;6.75;;;;;19.11;69.75;101343.63;5117573;27;45368;-79
2022/10/17 04:53:36;;;;;;;;;7.50;6.00;;;;;19.13;69.93;101356.75;5117728;27;45394;-79
2022/10/17 04:56:08;;;;;;;;;7.50;5.75;;;;;19.12;69.57;101363.78;5117196;27;45355;-79
2022/10/17 04:58:33;;;;;;;;;7.75;7.00;;;;;19.17;69.91;101355.63;5117507;27;45348;-79
2022/10/17 05:00:58;;;;;;;;;11.25;7.00;;;;;19.19;69.17;101379.31;5116323;27;74560;-80
2022/10/17 05:03:24;;;;;;;;;8.25;6.00;;;;;19.17;69.39;101365.31;5116987;27;49918;-79
2022/10/17 05:05:49;;;;;;;;;8.50;6.50;;;;;19.14;69.60;101384.81;5116499;27;69813;-79
2022/10/17 05:08:14;;;;;;;;;5.00;5.00;;;;;19.12;70.10;101369.06;5116425;27;70421;-79
2022/10/17 05:10:42;;;;;;;;;7.50;5.75;;;;;19.12;69.85;101390.19;5115945;27;72405;-79
2022/10/17 05:13:08;;;;;;;;;10.50;7.00;;;;;19.12;70.39;101395.44;5098865;27;45642;-79
2022/10/17 05:15:34;;;;;;;;;7.25;6.00;;;;;19.11;70.87;101401.69;5099011;27;45391;-79
2022/10/17 05:18:00;;;;;;;;;8.25;7.00;;;;;19.11;71.02;101400.81;5117345;27;45383;-80
2022/10/17 05:20:25;;;;;;;;;7.00;7.00;;;;;19.10;70.82;101404.41;5098592;27;46561;-79
2022/10/17 05:22:51;;;;;;;;;8.00;7.50;;;;;19.08;70.99;101401.84;5116250;27;66125;-79
2022/10/17 05:25:16;;;;;;;;;8.00;6.25;;;;;19.04;71.49;101391.56;5098660;27;45405;-79
2022/10/17 05:27:41;;;;;;;;;8.50;6.75;;;;;19.02;71.54;101396.91;5097777;27;70438;-80
2022/10/17 05:30:07;;;;;;;;;6.75;6.00;;;;;18.97;71.18;101392.81;5115947;27;73734;-79
2022/10/17 05:32:35;;;;;;;;;7.00;7.00;;;;;18.96;71.54;101405.13;5116964;27;45315;-80
2022/10/17 05:35:02;;;;;;;;;6.00;5.00;;;;;18.95;71.28;101392.88;5118232;27;45402;-80
2022/10/17 05:37:29;;;;;;;;;7.50;5.75;;;;;18.96;71.51;101402.50;5114405;27;45522;-80
2022/10/17 05:39:54;;;;;;;;;10.00;7.00;;;;;18.94;72.08;101388.53;5125550;27;46157;-79
2022/10/17 05:42:19;;;;;;;;;8.00;8.00;;;;;18.93;72.29;101395.59;5144441;27;45319;-79
2022/10/17 05:44:45;;;;;;;;;6.50;5.00;;;;;18.92;71.95;101401.81;5144627;27;45408;-79
2022/10/17 05:47:10;;;;;;;;;6.75;5.00;;;;;18.90;71.73;101405.47;5144753;27;45472;-79
2022/10/17 05:49:35;;;;;;;;;5.50;5.00;;;;;18.87;71.95;101414.41;5143285;27;75303;-79
2022/10/17 05:52:01;;;;;;;;;11.50;7.50;;;;;18.89;72.50;101401.97;5143638;27;69531;-79
2022/10/17 05:54:26;;;;;;;;;7.00;7.00;;;;;18.88;72.88;101408.19;5143138;27;69384;-79
2022/10/17 05:56:53;;;;;;;;;7.25;6.00;;;;;18.90;72.98;101402.81;5125420;27;45473;-79
2022/10/17 05:59:18;;;;;;;;;7.25;7.00;;;;;18.87;73.26;101390.66;5144269;27;46071;-79
2022/10/17 06:01:43;;;;;;;;;8.25;7.25;;;;;18.87;73.21;101395.94;5143377;27;68753;-79
2022/10/17 06:04:09;;;;;;;;;8.25;6.25;;;;;18.84;73.05;101393.47;5144394;27;45256;-80
2022/10/17 06:06:38;;;;;;;;;10.50;8.75;;;;;18.80;73.39;101383.13;5143432;27;66206;-80
2022/10/17 06:09:04;;;;;;;;;9.75;8.00;;;;;18.77;73.57;101376.22;5143696;27;45397;-80
2022/10/17 06:11:29;;;;;;;;;8.00;8.00;;;;;18.77;73.79;101378.84;5143296;27;66039;-80
2022/10/17 06:13:55;;;;;;;;;8.75;8.75;;;;;18.74;73.95;101379.88;5144285;27;45368;-79
2022/10/17 06:16:20;;;;;;;;;9.50;7.75;;;;;18.74;73.62;101381.69;5143366;27;65321;-79
2022/10/17 06:18:46;;;;;;;;;7.50;6.75;;;;;18.70;73.54;101390.66;5125355;27;46911;-79
2022/10/17 06:21:13;;;;;;;;;8.25;6.75;;;;;18.69;73.22;101407.44;5143037;27;68802;-80
2022/10/17 06:23:39;;;;;;;;;8.00;7.00;;;;;18.70;74.07;101399.44;5125227;27;45409;-79
2022/10/17 06:26:05;;;;;;;;;8.50;8.50;;;;;18.69;73.52;101412.69;5143096;27;70150;-79
2022/10/17 06:28:31;;;;;;;;;11.25;8.25;;;;;18.67;73.98;101423.31;5125336;27;45364;-80
2022/10/17 06:30:56;;;;;;;;;7.25;6.75;;;;;18.67;74.05;101422.47;5144094;27;45306;-79
2022/10/17 06:33:22;;;;;;;;;8.00;6.25;;;;;18.66;73.62;101428.66;5139830;27;69320;-79
2022/10/17 06:35:54;;;;;;;;;8.75;7.75;;;;;18.65;74.06;101434.91;5123337;27;45413;-80
2022/10/17 06:38:20;;;;;;;;;8.75;7.00;;;;;18.61;73.87;101430.69;5110114;27;46516;-79
2022/10/17 06:40:45;;;;;;;;;8.00;7.00;;;;;18.61;73.94;101435.97;5143793;27;45323;-80
2022/10/17 06:43:11;;;;;;;;;9.00;7.00;;;;;18.64;74.14;101435.81;5141216;27;45335;-79
2022/10/17 06:45:38;;;;;;;;;7.50;7.00;;;;;18.66;73.98;101441.84;5143814;27;45226;-79
2022/10/17 06:48:04;;;;;;;;;8.50;7.25;;;;;18.66;74.37;101439.22;5139827;27;46501;-79
2022/10/17 06:50:29;;;;;;;;;8.00;6.00;;;;;18.68;73.79;101450.53;5140325;27;45339;-79
2022/10/17 06:52:54;;;;;;;;;8.00;7.75;;;;;18.69;74.16;101452.25;5139203;27;68570;-80
2022/10/17 06:55:19;;;;;;;;;10.25;8.00;;;;;18.69;73.83;101470.72;5121805;27;45751;-79
2022/10/17 06:57:45;;;;;;;;;9.75;7.75;;;;;18.72;73.63;101474.06;5118711;27;69783;-79
2022/10/17 07:00:11;;;;;;;;;7.25;4.00;;;;;18.71;73.67;101474.13;5139434;27;61159;-79
2022/10/17 07:02:36;;;;;;;;;11.50;10.75;;;;;18.73;74.04;101472.25;5112894;27;45363;-79
2022/10/17 07:05:02;;;;;;;;;10.00;9.25;;;;;18.76;73.70;101504.59;5119197;27;45541;-80
2022/10/17 07:07:30;;;;;;;;;7.00;7.00;;;;;18.77;73.88;101511.56;5131855;27;46916;-79
2022/10/17 07:09:56;;;;;;;;;7.75;7.00;;;;;18.81;74.05;101514.09;5139548;27;45217;-79
2022/10/17 07:12:22;;;;;;;;;7.25;7.25;;;;;18.81;73.60;101514.09;5121693;27;45420;-79
2022/10/17 07:14:49;;;;;;;;;7.75;7.00;;;;;18.85;73.60;101534.09;5140080;27;45354;-80
2022/10/17 07:17:15;;;;;;;;;9.00;8.00;;;;;18.85;73.47;101534.09;5139756;27;46472;-80
2022/10/17 07:19:42;;;;;;;;;7.50;7.00;;;;;18.90;73.76;101543.47;5134529;27;45421;-79
2022/10/17 07:22:07;;;;;;;;;10.75;7.00;;;;;18.97;73.78;101548.47;5124820;27;45418;-80
2022/10/17 07:24:33;;;;;;;;;6.25;6.25;;;;;19.03;73.37;101550.78;5107002;27;45499;-78
2022/10/17 07:26:58;;;;;;;;;5.25;4.50;;;;;19.07;73.54;101561.06;5100416;27;46137;-80
2022/10/17 07:29:23;;;;;;;;;9.75;7.25;;;;;19.13;72.67;101571.34;5118364;27;73441;-79
2022/10/17 07:31:50;;;;;;;;;11.75;6.50;;;;;19.19;73.34;101559.59;5118641;27;48497;-79
2022/10/17 07:34:16;;;;;;;;;9.75;8.00;;;;;19.28;73.03;101588.16;5118622;27;45544;-79
2022/10/17 07:36:41;;;;;;;;;7.75;7.75;;;;;19.36;72.82;101587.75;5118128;27;45870;-80
2022/10/17 07:39:07;;;;;;;;;9.00;7.00;;;;;19.43;72.16;101591.78;5128991;27;45363;-79
2022/10/17 07:41:32;;;;;;;;;10.25;7.25;;;;;19.43;72.10;101594.44;5135610;27;45459;-80
2022/10/17 07:43:57;;;;;;;;;9.50;7.50;;;;;19.39;72.09;101590.25;5124916;27;67534;-80
2022/10/17 07:46:23;;;;;;;;;11.25;7.25;;;;;19.34;72.06;101600.19;5127887;27;69889;-80
2022/10/17 07:48:48;;;;;;;;;7.50;7.50;;;;;19.32;72.19;101602.06;5138404;27;62707;-80
2022/10/17 07:51:15;;;;;;;;;7.50;6.25;;;;;19.31;72.50;101595.06;5139067;27;45243;-80
2022/10/17 07:53:41;;;;;;;;;8.00;8.00;;;;;19.32;72.29;101602.06;5120651;27;45574;-81
2022/10/17 07:56:08;;;;;;;;;7.75;6.25;;;;;19.30;72.28;101603.91;5103229;27;46265;-81
2022/10/17 07:58:34;;;;;;;;;9.75;5.25;;;;;19.30;72.27;101611.84;5138898;27;45694;-80
2022/10/17 08:01:04;;;;;;;;;6.25;5.00;;;;;19.30;72.11;101625.88;5139273;27;45465;-80
2022/10/17 08:03:29;;;;;;;;;7.75;6.75;;;;;19.34;72.33;101629.22;5120539;27;45257;-81
2022/10/17 08:05:59;;;;;;;;;8.75;5.75;;;;;19.36;72.24;101637.91;5136552;27;71447;-81
2022/10/17 08:08:25;;;;;;;;;4.50;4.00;;;;;19.36;72.18;101640.56;5120215;27;45379;-80
2022/10/17 08:10:50;;;;;;;;;7.00;6.25;;;;;19.40;72.28;101643.88;5139030;27;45312;-80
2022/10/17 08:13:15;;;;;;;;;8.50;5.25;;;;;19.43;72.08;101649.03;5138964;27;45336;-80
2022/10/17 08:15:41;;;;;;;;;6.75;5.75;;;;;19.46;72.08;101651.47;5137539;27;71526;-80
2022/10/17 08:18:06;;;;;;;;;5.00;5.00;;;;;19.49;71.90;101662.75;5138446;27;45426;-80
2022/10/17 08:20:32;;;;;;;;;6.00;6.00;;;;;19.52;71.84;101661.75;5138288;27;45416;-80
2022/10/17 08:22:57;;;;;;;;;4.75;4.50;;;;;19.58;71.83;101666.69;5120273;27;45437;-81
2022/10/17 08:25:22;;;;;;;;;2.75;2.25;;;;;19.62;71.75;101664.75;5119010;27;71487;-80
2022/10/17 08:27:48;;;;;;;;;10.25;6.50;;;;;19.67;71.43;101668.88;5138388;27;52288;-80
2022/10/17 08:30:13;;;;;;;;;7.00;6.00;;;;;19.73;71.41;101673.00;5120049;27;45340;-80
2022/10/17 08:32:39;;;;;;;;;7.75;5.00;;;;;19.79;71.30;101677.09;5138563;27;45295;-80
2022/10/17 08:35:04;;;;;;;;;7.00;6.00;;;;;19.84;70.93;101678.56;5120060;27;45376;-80
2022/10/17 08:37:31;;;;;;;;;6.25;6.00;;;;;19.90;71.26;101685.31;5117308;27;45346;-80
2022/10/17 08:39:56;;;;;;;;;6.25;6.00;;;;;19.94;70.75;101697.41;5117683;27;45430;-80
2022/10/17 08:42:49;;;;;;;;;6.25;4.25;;;;;19.98;70.79;101698.09;5117455;27;45452;-80
2022/10/17 08:45:17;;;;;;;;;7.25;6.00;;;;;20.02;70.78;101697.88;5116818;27;46058;-80
2022/10/17 08:47:57;;;;;;;;;6.00;5.75;;;;;20.10;70.63;101693.03;5117465;27;45384;-81
2022/10/17 08:50:30;;;;;;;;;4.50;3.00;;;;;20.20;70.24;101697.81;5099128;27;45419;-80
2022/10/17 08:53:17;;;;;;;;;6.50;5.50;;;;;20.26;70.10;101708.91;5098976;27;45360;-80
2022/10/17 08:55:47;;;;;;;;;7.00;7.00;;;;;20.28;69.92;101709.69;5117158;27;46102;-81
2022/10/17 08:58:14;;;;;;;;;5.00;4.75;;;;;20.29;69.90;101708.72;5098721;27;45427;-80
2022/10/17 09:00:45;;;;;;;;;5.50;4.25;;;;;20.28;70.19;101722.91;5117517;27;45479;-80
2022/10/17 09:03:28;;;;;;;;;6.00;5.50;;;;;20.27;69.99;101715.06;5097647;27;45401;-80
2022/10/17 09:06:28;;;;;;;;;5.75;4.75;;;;;20.26;69.80;101723.91;5098606;27;46496;-80
2022/10/17 09:09:11;;;;;;;;;7.50;4.00;;;;;20.21;70.22;101741.84;5099436;27;45447;-80
2022/10/17 09:12:04;;;;;;;;;6.25;5.50;;;;;20.16;70.12;101738.56;5116550;27;45398;-80
2022/10/17 09:14:54;;;;;;;;;7.00;5.00;;;;;20.14;70.51;101759.78;5111267;27;45366;-80
2022/10/17 09:17:44;;;;;;;;;6.50;6.00;;;;;20.07;70.90;101764.53;5137333;27;46147;-81
2022/10/17 09:20:11;;;;;;;;;4.00;4.00;;;;;20.04;71.11;101763.84;5119095;27;45299;-81
2022/10/17 09:23:00;;;;;;;;;7.00;7.00;;;;;19.98;71.75;101759.72;5119475;27;45436;-80
2022/10/17 09:25:26;;;;;;;;;9.75;5.75;;;;;19.96;71.82;101763.41;5137117;27;45502;-80
2022/10/17 09:28:18;;;;;;;;;5.50;4.00;;;;;19.95;72.08;101785.47;5101680;27;48017;-80
2022/10/17 09:30:46;;;;;;;;;3.75;3.75;;;;;19.94;72.16;101783.78;5119000;27;45315;-80
2022/10/17 09:33:17;;;;;;;;;8.00;5.00;;;;;19.92;72.27;101795.25;5117118;27;45430;-80
2022/10/17 09:35:43;;;;;;;;;7.75;7.00;;;;;19.92;72.28;101791.78;5098463;27;45718;-80
2022/10/17 09:38:14;;;;;;;;;7.00;5.75;;;;;19.91;72.58;101798.84;5116471;27;46551;-80
2022/10/17 09:40:39;;;;;;;;;7.00;6.00;;;;;19.86;73.47;101807.94;5081366;27;45591;-80
2022/10/17 09:43:06;;;;;;;;;7.75;6.00;;;;;19.83;73.63;101802.81;5098178;27;45339;-80
2022/10/17 09:45:42;;;;;;;;;7.00;5.75;;;;;19.77;73.63;101800.50;5116812;27;45351;-80
2022/10/17 09:48:25;;;;;;;;;9.75;7.50;;;;;19.75;74.48;101808.50;5098210;27;46129;-80
2022/10/17 09:50:50;;;;;;;;;7.00;5.00;;;;;19.76;75.34;101809.34;5098182;27;45438;-80
2022/10/17 09:53:23;;;;;;;;;6.00;4.00;;;;;19.73;74.96;101810.34;5097346;27;66238;-80
2022/10/17 09:55:52;;;;;;;;;9.50;6.25;;;;;19.73;75.32;101811.19;5098427;27;45369;-80
2022/10/17 09:58:19;;;;;;;;;10.00;6.75;;;;;19.73;75.72;101810.34;5116328;27;45413;-80
2022/10/17 10:00:46;;;;;;;;;10.25;7.75;;;;;19.71;75.78;101810.41;5115280;27;67409;-81
2022/10/17 10:03:11;;;;;;;;;10.25;8.50;;;;;19.72;75.55;101805.97;5098342;27;45241;-80
2022/10/17 10:05:37;;;;;;;;;12.33;8.33;;;;;19.67;76.13;101800.06;5121343;27;45222;-80
2022/10/17 10:08:04;;;;;;;;;12.75;7.00;;;;;19.65;76.16;101809.84;5136847;27;45390;-80
2022/10/17 10:10:31;;;;;;;;;9.50;7.75;;;;;19.60;76.30;101810.09;5132688;27;45542;-81
2022/10/17 10:13:16;;;;;;;;;8.00;7.00;;;;;19.57;76.51;101809.38;5117197;27;45524;-80
2022/10/17 10:15:49;;;;;;;;;9.25;9.25;;;;;19.56;76.32;101821.72;5116634;27;45512;-79
2022/10/17 10:18:23;;;;;;;;;8.00;7.75;;;;;19.58;76.41;101827.78;5135504;27;46469;-80
2022/10/17 10:21:21;;;;;;;;;11.75;9.75;;;;;19.57;76.66;101830.50;5135352;27;45752;-80
2022/10/17 10:24:12;;;;;;;;;7.75;6.75;;;;;19.57;77.06;101836.63;5138151;27;45609;-79
2022/10/17 10:26:45;;;;;;;;;6.50;4.50;;;;;19.57;77.05;101828.72;5139445;27;45335;-78
2022/10/17 10:29:32;;;;;;;;;10.50;8.00;;;;;19.59;77.14;101840.03;5139025;27;46338;-79
2022/10/17 10:32:07;;;;;;;;;9.75;8.25;;;;;19.58;77.22;101841.00;5139095;27;45699;-78
2022/10/17 10:34:34;;;;;;;;;10.00;8.25;;;;;19.59;77.30;101847.97;5138963;27;45277;-80
2022/10/17 10:37:05;;;;;;;;;10.25;8.75;;;;;19.58;77.27;101858.63;5120641;27;45569;-80
2022/10/17 10:39:36;;;;;;;;;9.75;8.50;;;;;19.58;77.60;101867.41;5121682;27;46716;-80
2022/10/17 10:42:05;;;;;;;;;12.00;10.25;;;;;19.60;77.95;101876.09;5140331;27;45329;-80
2022/10/17 10:44:32;;;;;;;;;20.00;12.75;;;;;19.62;77.48;101881.31;5121443;27;45299;-80
2022/10/17 10:47:27;;;;;;;;;10.25;10.00;;;;;19.63;77.69;101889.19;5121848;27;45322;-80
2022/10/17 10:50:08;;;;;;;;;11.00;10.75;;;;;19.62;78.03;101879.53;5118251;27;46877;-80
2022/10/17 10:52:41;;;;;;;;;11.00;9.75;;;;;19.64;78.01;101879.47;5121550;27;45798;-79
2022/10/17 10:55:44;;;;;;;;;12.50;11.00;;;;;19.66;77.86;101883.72;5140365;27;45699;-79
2022/10/17 10:58:41;;;;;;;;;9.75;9.75;;;;;19.68;77.86;101894.22;5126989;27;45467;-79
2022/10/17 11:01:19;;;;;;;;;13.50;9.75;;;;;19.71;78.24;101886.16;5124677;27;47243;-80
2022/10/17 11:03:57;;;;;;;;;13.50;10.50;;;;;19.77;78.03;101892.94;5121335;27;45417;-79
2022/10/17 11:06:27;;;;;;;;;10.50;10.50;;;;;19.82;78.12;101897.06;5125016;27;45317;-80
2022/10/17 11:09:23;;;;;;;;;12.00;10.25;;;;;19.91;78.34;101891.34;5110470;27;45456;-80
2022/10/17 11:12:18;;;;;;;;;11.50;8.75;;;;;20.02;78.27;101885.50;5118985;27;46456;-81
2022/10/17 11:14:49;;;;;;;;;14.25;11.50;;;;;20.11;78.39;101887.69;5104340;27;45688;-80
2022/10/17 11:17:18;;;;;;;;;14.50;9.00;;;;;20.22;77.77;101883.63;5106770;27;45289;-81
2022/10/17 11:19:52;;;;;;;;;13.75;9.00;;;;;20.32;77.54;101887.53;5099962;27;45529;-81
2022/10/17 11:22:26;;;;;;;;;12.75;12.00;;;;;20.43;77.38;101881.66;5095859;27;46402;-80
2022/10/17 11:25:03;;;;;;;;;16.00;10.50;;;;;20.53;77.36;101896.13;5079227;27;46319;-81
2022/10/17 11:27:30;;;;;;;;;11.00;11.00;;;;;20.60;77.09;101900.19;5111006;27;45537;-81
2022/10/17 11:29:56;;;;;;;;;14.00;12.00;;;;;20.64;76.98;101909.66;5080994;27;45345;-82
2022/10/17 11:32:30;;;;;;;;;11.75;9.00;;;;;20.67;76.77;101916.56;5080193;27;46452;-81
2022/10/17 11:35:16;;;;;;;;;11.00;8.00;;;;;20.67;76.17;101919.22;5097675;27;45410;-81